Howard City, MI (49329)

12:07 AM EST on February 10, 2016 (GMT -0500)
Ensley Center - Snow Farm | | Change Station
CLOSE
Current Station
Personal Weather Station
Location: Howard City, MI
Elevation: 982 ft
Nearby Weather Stations

Elev 982 ft 43.36 °N, 85.62 °W | Updated 9 minutes ago

Snow
Snow
18.0 °F
Feels Like 12 °F
N
3.7
Wind Variable Wind from NE

Today
High -- | Low -- °F
--% Chance of Precip.
Yesterday
High -- | Low -- °F
Precip. -- in
Pressure 29.73 in
Visibility 1.2 miles
Clouds Overcast 1200 ft
Windchill 12 °F
Dew Point 17 °F
Humidity 95%
Rainfall in
Snow Depth Not available.
7:47 AM 6:05 PM
Waxing Crescent, 3% visible
METAR KRQB 100455Z AUTO 30004KT 1 1/4SM -SN OVC012 M07/M09 A2973 RMK AO2 T10701086
Pressure 29.73 in
Visibility 1.2 miles
Clouds Overcast 1200 ft
Windchill 12 °F
Dew Point 17 °F
Humidity 95%
Rainfall in
Snow Depth Not available.
7:47 AM 6:05 PM
Waxing Crescent, 3% visible
METAR KRQB 100455Z AUTO 30004KT 1 1/4SM -SN OVC012 M07/M09 A2973 RMK AO2 T10701086

10-Day Weather Forecast

Almanac

Astronomy

Feb. 10, 2016 Rise Set
Actual Time
Civil Twilight
Nautical Twilight
Astronomical Twilight
Moon
Length of Visible Light
Length of Day
Tomorrow will be .
, % of the Moon is Illuminated

Today's Extremes

State Highs State Lows

Community

WunderPhotos

Upload Photos

1,891,818 photos uploaded!

WunderBlog® & News

Nearby

Air Quality

  Air Quality AQ Index Pollutant
Not available.

Snow Depth

Station Depth Elevation

Earthquake Activity

City Distance Mag. Time & Date
Minimum magnitude displayed is 2.5.

Coastal Water Temperatures

Place Temperature

Stations

Nearby Weather Stations

Station Location Temp. Windchill Dew Point Humidity Wind Precip. Elev Updated Type
                   

Watches & Warnings

There are currently no watches in effect.